Terminal Aerodrome Forecast
Issued by NWS

Home | Current Version | Previous Version | Text Only | Print | Product List | Glossary On
Versions: 1 2 3 4 5 6 7 8 9 10 11 12 13 14
759
FTUS43 KSGF 100520
TAFJLN
TAF
KJLN 100520Z 1006/1106 32007KT P6SM FEW250
     FM100900 22004KT P6SM SCT130
     FM101200 17005KT P6SM SCT100
     FM101700 21012G20KT P6SM SKC
     FM110200 25008KT P6SM SKC=

USA.gov is the U.S. government's official web portal to all federal, state and local government web resources and services.